Time,TemperatureF,DewpointF,PressureIn,WindDirection,WindDirectionDegrees,WindSpeedMPH,WindSpeedGustMPH,Humidity,HourlyPrecipIn,Conditions,Clouds,dailyrainin,SoftwareType,DateUTC
2013-02-27 00:03:00,30.8,25.4,29.10,SE,127,2.0,22.0,80,0.00,,,0.00,Wunderground v.1.15,2013-02-27 09:03:00,
2013-02-27 00:08:00,30.9,25.5,29.11,SE,127,1.0,22.0,80,0.00,,,0.00,Wunderground v.1.15,2013-02-27 09:08:00,
2013-02-27 00:14:00,31.0,25.6,29.10,ESE,110,3.0,22.0,80,0.00,,,0.00,Wunderground v.1.15,2013-02-27 09:14:00,
2013-02-27 00:20:00,30.8,25.4,29.11,ESE,111,4.0,22.0,80,0.00,,,0.00,Wunderground v.1.15,2013-02-27 09:20:00,
2013-02-27 00:26:00,30.6,25.5,29.11,SSE,158,4.0,22.0,81,0.00,,,0.00,Wunderground v.1.15,2013-02-27 09:26:00,
2013-02-27 00:32:00,30.6,25.8,29.10,SE,129,3.0,22.0,82,0.00,,,0.00,Wunderground v.1.15,2013-02-27 09:32:00,
2013-02-27 00:37:00,31.1,26.5,29.11,South,179,3.0,22.0,83,0.00,,,0.00,Wunderground v.1.15,2013-02-27 09:37:00,
2013-02-27 00:43:00,31.3,27.0,29.10,ESE,105,3.0,22.0,84,0.00,,,0.00,Wunderground v.1.15,2013-02-27 09:43:00,
2013-02-27 00:49:00,31.0,27.3,29.10,ESE,117,2.0,22.0,86,0.00,,,0.00,Wunderground v.1.15,2013-02-27 09:49:00,
2013-02-27 00:55:00,30.7,27.6,29.10,SE,136,2.0,22.0,88,0.00,,,0.00,Wunderground v.1.15,2013-02-27 09:55:00,
2013-02-27 01:00:00,30.4,27.5,29.09,SE,124,2.0,22.0,89,0.00,,,0.00,Wunderground v.1.15,2013-02-27 10:00:00,
2013-02-27 01:06:00,30.2,27.3,29.09,ESE,122,3.0,22.0,89,0.00,,,0.00,Wunderground v.1.15,2013-02-27 10:06:00,
2013-02-27 01:12:00,30.1,27.5,29.10,ESE,123,5.0,22.0,90,0.00,,,0.00,Wunderground v.1.15,2013-02-27 10:12:00,
2013-02-27 01:17:00,30.1,27.3,29.10,ESE,117,5.0,22.0,89,0.00,,,0.00,Wunderground v.1.15,2013-02-27 10:17:00,
2013-02-27 01:23:00,30.0,27.2,29.09,East,97,5.0,22.0,89,0.00,,,0.00,Wunderground v.1.15,2013-02-27 10:23:00,
2013-02-27 01:29:00,29.8,27.0,29.09,ESE,113,4.0,22.0,89,0.00,,,0.00,Wunderground v.1.15,2013-02-27 10:29:00,
2013-02-27 01:35:00,29.8,26.7,29.09,ESE,105,5.0,22.0,88,0.00,,,0.00,Wunderground v.1.15,2013-02-27 10:35:00,
2013-02-27 01:40:00,30.1,27.0,29.09,ESE,111,7.0,22.0,88,0.00,,,0.00,Wunderground v.1.15,2013-02-27 10:40:00,
2013-02-27 01:46:00,30.3,26.9,29.08,East,100,7.0,22.0,87,0.00,,,0.00,Wunderground v.1.15,2013-02-27 10:46:00,
2013-02-27 01:52:00,30.2,26.8,29.08,ESE,113,7.0,22.0,87,0.00,,,0.00,Wunderground v.1.15,2013-02-27 10:52:00,
2013-02-27 01:58:00,30.1,26.4,29.09,ESE,121,8.0,22.0,86,0.00,,,0.00,Wunderground v.1.15,2013-02-27 10:58:00,
2013-02-27 02:04:00,30.1,26.4,29.08,ESE,113,9.0,22.0,86,0.00,,,0.00,Wunderground v.1.15,2013-02-27 11:04:00,
2013-02-27 02:10:00,30.0,26.0,29.08,SE,127,8.0,22.0,85,0.00,,,0.00,Wunderground v.1.15,2013-02-27 11:10:00,
2013-02-27 02:15:00,30.0,26.0,29.08,SE,128,8.0,22.0,85,0.00,,,0.00,Wunderground v.1.15,2013-02-27 11:15:00,
2013-02-27 02:21:00,30.0,26.0,29.08,SE,124,7.0,7.0,85,0.00,,,0.00,Wunderground v.1.15,2013-02-27 11:21:00,
2013-02-27 02:27:00,30.2,26.2,29.08,ESE,120,6.0,22.0,85,0.00,,,0.00,Wunderground v.1.15,2013-02-27 11:27:00,
2013-02-27 02:33:00,30.4,26.1,29.08,ESE,117,6.0,22.0,84,0.00,,,0.00,Wunderground v.1.15,2013-02-27 11:33:00,
2013-02-27 02:38:00,30.6,26.1,29.07,ESE,118,6.0,22.0,83,0.00,,,0.00,Wunderground v.1.15,2013-02-27 11:38:00,
2013-02-27 02:44:00,30.6,26.1,29.07,ESE,110,7.0,22.0,83,0.00,,,0.00,Wunderground v.1.15,2013-02-27 11:44:00,
2013-02-27 02:50:00,30.4,25.6,29.07,ESE,120,7.0,22.0,82,0.00,,,0.00,Wunderground v.1.15,2013-02-27 11:50:00,
2013-02-27 02:56:00,30.2,25.4,29.06,ESE,107,6.0,22.0,82,0.00,,,0.00,Wunderground v.1.15,2013-02-27 11:56:00,
2013-02-27 03:01:00,30.0,24.9,29.06,ESE,109,6.0,22.0,81,0.00,,,0.00,Wunderground v.1.15,2013-02-27 12:01:00,
2013-02-27 03:07:00,29.9,24.8,29.06,ESE,105,6.0,22.0,81,0.00,,,0.00,Wunderground v.1.15,2013-02-27 12:07:00,
2013-02-27 03:12:00,29.8,24.7,29.06,ESE,120,7.0,22.0,81,0.00,,,0.00,Wunderground v.1.15,2013-02-27 12:12:00,
2013-02-27 03:18:00,29.2,23.8,29.05,East,86,7.0,22.0,80,0.00,,,0.00,Wunderground v.1.15,2013-02-27 12:18:00,
2013-02-27 03:24:00,28.7,23.6,29.05,East,92,7.0,22.0,81,0.00,,,0.00,Wunderground v.1.15,2013-02-27 12:24:00,
2013-02-27 03:30:00,28.6,23.2,29.04,ESE,103,8.0,22.0,80,0.00,,,0.00,Wunderground v.1.15,2013-02-27 12:30:00,
2013-02-27 03:36:00,28.1,22.4,29.05,ENE,65,7.0,22.0,79,0.00,,,0.00,Wunderground v.1.15,2013-02-27 12:36:00,
2013-02-27 03:42:00,27.9,22.2,29.05,ESE,107,8.0,22.0,79,0.00,,,0.00,Wunderground v.1.15,2013-02-27 12:42:00,
2013-02-27 03:48:00,27.7,22.0,29.05,East,81,10.0,22.0,79,0.00,,,0.00,Wunderground v.1.15,2013-02-27 12:48:00,
2013-02-27 03:53:00,27.5,21.8,29.05,ESE,103,10.0,22.0,79,0.00,,,0.00,Wunderground v.1.15,2013-02-27 12:53:00,
2013-02-27 03:59:00,27.7,22.0,29.04,East,96,9.0,22.0,79,0.00,,,0.00,Wunderground v.1.15,2013-02-27 12:59:00,
2013-02-27 04:05:00,28.0,22.0,29.04,ESE,110,9.0,22.0,78,0.00,,,0.00,Wunderground v.1.15,2013-02-27 13:05:00,
2013-02-27 04:10:00,28.0,22.0,29.04,ENE,67,10.0,22.0,78,0.00,,,0.00,Wunderground v.1.15,2013-02-27 13:10:00,
2013-02-27 04:16:00,27.4,21.4,29.03,ESE,103,12.0,22.0,78,0.00,,,0.00,Wunderground v.1.15,2013-02-27 13:16:00,
2013-02-27 04:22:00,27.3,21.6,29.03,East,83,13.0,22.0,79,0.00,,,0.00,Wunderground v.1.15,2013-02-27 13:22:00,
2013-02-27 04:28:00,27.4,21.7,29.03,SE,145,12.0,22.0,79,0.00,,,0.00,Wunderground v.1.15,2013-02-27 13:28:00,
2013-02-27 04:33:00,27.1,21.2,29.03,ESE,110,12.0,22.0,78,0.00,,,0.00,Wunderground v.1.15,2013-02-27 13:33:00,
2013-02-27 04:39:00,27.5,21.8,29.03,ESE,114,12.0,22.0,79,0.00,,,0.00,Wunderground v.1.15,2013-02-27 13:39:00,
2013-02-27 04:45:00,28.6,22.3,29.03,East,92,12.0,22.0,77,0.00,,,0.00,Wunderground v.1.15,2013-02-27 13:45:00,
2013-02-27 04:51:00,27.7,21.4,29.03,East,98,13.0,22.0,77,0.00,,,0.00,Wunderground v.1.15,2013-02-27 13:51:00,
2013-02-27 04:56:00,27.4,21.4,29.02,East,98,12.0,22.0,78,0.00,,,0.00,Wunderground v.1.15,2013-02-27 13:56:00,
2013-02-27 05:02:00,27.8,21.8,29.02,ESE,121,12.0,13.0,78,0.00,,,0.00,Wunderground v.1.15,2013-02-27 14:02:00,
2013-02-27 05:07:00,28.0,22.0,29.02,ESE,107,13.0,20.0,78,0.00,,,0.00,Wunderground v.1.15,2013-02-27 14:07:00,
2013-02-27 05:12:00,27.9,21.6,29.02,ESE,108,15.0,18.0,77,0.00,,,0.00,Wunderground v.1.15,2013-02-27 14:12:00,
2013-02-27 05:18:00,28.0,21.7,29.01,East,98,15.0,19.0,77,0.00,,,0.00,Wunderground v.1.15,2013-02-27 14:18:00,
2013-02-27 05:24:00,28.5,21.9,29.01,East,87,14.0,22.0,76,0.00,,,0.00,Wunderground v.1.15,2013-02-27 14:24:00,
2013-02-27 05:29:00,28.8,21.9,29.01,ESE,110,15.0,22.0,75,0.00,,,0.00,Wunderground v.1.15,2013-02-27 14:29:00,
2013-02-27 05:35:00,29.2,21.9,29.01,ESE,110,15.0,18.0,74,0.00,,,0.00,Wunderground v.1.15,2013-02-27 14:35:00,
2013-02-27 05:41:00,29.3,22.0,29.01,ESE,113,16.0,16.0,74,0.00,,,0.00,Wunderground v.1.15,2013-02-27 14:41:00,
2013-02-27 05:46:00,29.3,22.4,29.01,ESE,103,15.0,22.0,75,0.00,,,0.00,Wunderground v.1.15,2013-02-27 14:46:00,
2013-02-27 05:52:00,29.3,22.4,29.01,SE,131,14.0,14.0,75,0.00,,,0.00,Wunderground v.1.15,2013-02-27 14:52:00,
2013-02-27 05:58:00,28.5,21.9,29.01,SE,129,12.0,18.0,76,0.00,,,0.00,Wunderground v.1.15,2013-02-27 14:58:00,
2013-02-27 06:04:00,28.6,22.0,29.01,SE,124,11.0,19.0,76,0.00,,,0.00,Wunderground v.1.15,2013-02-27 15:04:00,
2013-02-27 06:10:00,28.7,22.1,29.02,SE,146,6.0,19.0,76,0.00,,,0.00,Wunderground v.1.15,2013-02-27 15:10:00,
2013-02-27 06:16:00,28.9,22.6,29.02,ESE,111,4.0,19.0,77,0.00,,,0.00,Wunderground v.1.15,2013-02-27 15:16:00,
2013-02-27 06:21:00,28.8,22.2,29.01,SE,143,5.0,19.0,76,0.00,,,0.00,Wunderground v.1.15,2013-02-27 15:21:00,
2013-02-27 06:27:00,29.1,22.5,29.01,ESE,111,7.0,19.0,76,0.00,,,0.00,Wunderground v.1.15,2013-02-27 15:27:00,
2013-02-27 06:33:00,29.3,22.4,29.01,SE,124,8.0,19.0,75,0.00,,,0.00,Wunderground v.1.15,2013-02-27 15:33:00,
2013-02-27 06:39:00,29.4,22.5,29.02,SSE,168,7.0,19.0,75,0.00,,,0.00,Wunderground v.1.15,2013-02-27 15:39:00,
2013-02-27 06:45:00,29.5,22.6,29.02,SSE,160,4.0,19.0,75,0.00,,,0.00,Wunderground v.1.15,2013-02-27 15:45:00,
2013-02-27 06:50:00,29.8,22.5,29.03,SE,145,3.0,19.0,74,0.00,,,0.00,Wunderground v.1.15,2013-02-27 15:50:00,
2013-02-27 06:56:00,29.9,22.6,29.03,SSE,152,3.0,19.0,74,0.00,,,0.00,Wunderground v.1.15,2013-02-27 15:56:00,
2013-02-27 07:01:00,29.8,22.5,29.02,South,180,3.0,19.0,74,0.00,,,0.00,Wunderground v.1.15,2013-02-27 16:01:00,
2013-02-27 07:07:00,29.3,23.0,29.02,SE,127,3.0,19.0,77,0.00,,,0.00,Wunderground v.1.15,2013-02-27 16:07:00,
2013-02-27 07:13:00,29.0,23.0,29.02,SE,146,6.0,19.0,78,0.00,,,0.00,Wunderground v.1.15,2013-02-27 16:13:00,
2013-02-27 07:19:00,28.9,22.6,29.02,ESE,103,6.0,19.0,77,0.00,,,0.00,Wunderground v.1.15,2013-02-27 16:19:00,
2013-02-27 07:24:00,28.9,22.3,29.02,ESE,105,6.0,19.0,76,0.00,,,0.00,Wunderground v.1.15,2013-02-27 16:24:00,
2013-02-27 07:29:00,28.6,21.7,29.02,East,96,7.0,19.0,75,0.00,,,0.00,Wunderground v.1.15,2013-02-27 16:29:00,
2013-02-27 07:35:00,28.0,21.1,29.02,ESE,105,8.0,19.0,75,0.00,,,0.00,Wunderground v.1.15,2013-02-27 16:35:00,
2013-02-27 07:41:00,27.9,21.0,29.02,ENE,68,6.0,6.0,75,0.00,,,0.00,Wunderground v.1.15,2013-02-27 16:41:00,
2013-02-27 07:47:00,27.7,20.8,29.02,ENE,78,5.0,19.0,75,0.00,,,0.00,Wunderground v.1.15,2013-02-27 16:47:00,
2013-02-27 07:52:00,27.2,20.3,29.02,East,86,5.0,19.0,75,0.00,,,0.00,Wunderground v.1.15,2013-02-27 16:52:00,
2013-02-27 07:58:00,27.2,20.6,29.02,ESE,115,6.0,19.0,76,0.00,,,0.00,Wunderground v.1.15,2013-02-27 16:58:00,
2013-02-27 08:04:00,28.1,21.2,29.02,ESE,116,7.0,19.0,75,0.00,,,0.00,Wunderground v.1.15,2013-02-27 17:04:00,
2013-02-27 08:10:00,28.8,21.6,29.02,ESE,107,9.0,19.0,74,0.00,,,0.00,Wunderground v.1.15,2013-02-27 17:10:00,
2013-02-27 08:16:00,29.2,21.3,29.02,ESE,110,9.0,19.0,72,0.00,,,0.00,Wunderground v.1.15,2013-02-27 17:16:00,
2013-02-27 08:21:00,29.3,21.4,29.02,ESE,105,9.0,19.0,72,0.00,,,0.00,Wunderground v.1.15,2013-02-27 17:21:00,
2013-02-27 08:27:00,29.8,21.5,29.03,ESE,118,9.0,19.0,71,0.00,,,0.00,Wunderground v.1.15,2013-02-27 17:27:00,
2013-02-27 08:33:00,30.2,21.6,29.03,ESE,120,9.0,19.0,70,0.00,,,0.00,Wunderground v.1.15,2013-02-27 17:33:00,
2013-02-27 08:39:00,30.4,21.8,29.03,ESE,121,8.0,19.0,70,0.00,,,0.00,Wunderground v.1.15,2013-02-27 17:39:00,
2013-02-27 08:45:00,30.5,21.9,29.03,East,100,7.0,19.0,70,0.00,,,0.00,Wunderground v.1.15,2013-02-27 17:45:00,
2013-02-27 08:51:00,30.5,21.9,29.03,ESE,116,7.0,19.0,70,0.00,,,0.00,Wunderground v.1.15,2013-02-27 17:51:00,
2013-02-27 08:57:00,30.6,22.0,29.03,ESE,111,8.0,19.0,70,0.00,,,0.00,Wunderground v.1.15,2013-02-27 17:57:00,
2013-02-27 09:02:00,30.6,22.3,29.03,ESE,113,7.0,19.0,71,0.00,,,0.00,Wunderground v.1.15,2013-02-27 18:02:00,
2013-02-27 09:08:00,30.7,22.4,29.04,SE,129,7.0,19.0,71,0.00,,,0.00,Wunderground v.1.15,2013-02-27 18:08:00,
2013-02-27 09:14:00,30.5,22.2,29.04,SE,135,7.0,19.0,71,0.00,,,0.00,Wunderground v.1.15,2013-02-27 18:14:00,
2013-02-27 09:20:00,30.5,22.2,29.04,ESE,117,8.0,19.0,71,0.00,,,0.00,Wunderground v.1.15,2013-02-27 18:20:00,
2013-02-27 09:25:00,30.7,22.7,29.04,SE,129,8.0,19.0,72,0.00,,,0.00,Wunderground v.1.15,2013-02-27 18:25:00,
2013-02-27 09:31:00,30.9,22.9,29.04,SE,124,6.0,19.0,72,0.00,,,0.00,Wunderground v.1.15,2013-02-27 18:31:00,
2013-02-27 09:37:00,31.1,23.1,29.05,SE,129,6.0,19.0,72,0.00,,,0.00,Wunderground v.1.15,2013-02-27 18:37:00,
2013-02-27 09:43:00,31.2,23.2,29.05,ESE,117,5.0,19.0,72,0.00,,,0.00,Wunderground v.1.15,2013-02-27 18:43:00,
2013-02-27 09:49:00,31.2,23.2,29.05,SE,133,4.0,19.0,72,0.00,,,0.00,Wunderground v.1.15,2013-02-27 18:49:00,
2013-02-27 09:55:00,31.4,23.4,29.05,ESE,116,4.0,19.0,72,0.00,,,0.00,Wunderground v.1.15,2013-02-27 18:55:00,
2013-02-27 10:01:00,31.9,23.9,29.05,ESE,123,6.0,19.0,72,0.00,,,0.00,Wunderground v.1.15,2013-02-27 19:01:00,
2013-02-27 10:07:00,32.3,23.9,29.05,ESE,121,7.0,19.0,71,0.00,,,0.00,Wunderground v.1.15,2013-02-27 19:07:00,
2013-02-27 10:12:00,32.3,23.9,29.05,ESE,121,6.0,19.0,71,0.00,,,0.00,Wunderground v.1.15,2013-02-27 19:12:00,
2013-02-27 10:18:00,32.5,24.5,29.05,ESE,108,5.0,19.0,72,0.00,,,0.00,Wunderground v.1.15,2013-02-27 19:18:00,
2013-02-27 10:24:00,32.4,24.4,29.05,ESE,121,4.0,19.0,72,0.00,,,0.00,Wunderground v.1.15,2013-02-27 19:24:00,
2013-02-27 10:30:00,32.4,24.7,29.06,ESE,108,2.0,19.0,73,0.00,,,0.00,Wunderground v.1.15,2013-02-27 19:30:00,
2013-02-27 10:36:00,32.6,24.9,29.06,ESE,105,1.0,19.0,73,0.00,,,0.00,Wunderground v.1.15,2013-02-27 19:36:00,
2013-02-27 10:42:00,33.1,25.1,29.06,ESE,122,1.0,19.0,72,0.00,,,0.00,Wunderground v.1.15,2013-02-27 19:42:00,
2013-02-27 10:48:00,33.7,24.6,29.06,SE,138,1.0,19.0,69,0.00,,,0.00,Wunderground v.1.15,2013-02-27 19:48:00,
2013-02-27 10:53:00,33.7,24.6,29.06,SE,130,3.0,19.0,69,0.00,,,0.00,Wunderground v.1.15,2013-02-27 19:53:00,
2013-02-27 10:59:00,33.4,24.0,29.06,SSE,155,4.0,19.0,68,0.00,,,0.00,Wunderground v.1.15,2013-02-27 19:59:00,
2013-02-27 11:05:00,33.4,24.0,29.06,SE,144,5.0,19.0,68,0.00,,,0.00,Wunderground v.1.15,2013-02-27 20:05:00,
2013-02-27 11:11:00,33.3,24.9,29.06,SE,145,5.0,19.0,71,0.00,,,0.00,Wunderground v.1.15,2013-02-27 20:11:00,
2013-02-27 11:16:00,33.4,25.0,29.06,ESE,102,5.0,19.0,71,0.00,,,0.00,Wunderground v.1.15,2013-02-27 20:16:00,
2013-02-27 11:22:00,33.4,25.0,29.06,SE,139,5.0,19.0,71,0.00,,,0.00,Wunderground v.1.15,2013-02-27 20:22:00,
2013-02-27 11:28:00,33.4,25.0,29.07,ESE,105,4.0,19.0,71,0.00,,,0.00,Wunderground v.1.15,2013-02-27 20:28:00,
2013-02-27 11:34:00,33.3,24.9,29.07,ESE,106,4.0,19.0,71,0.00,,,0.00,Wunderground v.1.15,2013-02-27 20:34:00,
2013-02-27 11:40:00,33.7,25.6,29.07,ESE,120,4.0,19.0,72,0.00,,,0.00,Wunderground v.1.15,2013-02-27 20:40:00,
2013-02-27 11:46:00,33.5,25.4,29.07,SE,127,3.0,19.0,72,0.00,,,0.00,Wunderground v.1.15,2013-02-27 20:46:00,
2013-02-27 11:52:00,33.3,25.2,29.07,SE,125,3.0,19.0,72,0.00,,,0.00,Wunderground v.1.15,2013-02-27 20:52:00,
2013-02-27 11:57:00,32.9,25.2,29.07,ESE,115,4.0,19.0,73,0.00,,,0.00,Wunderground v.1.15,2013-02-27 20:57:00,
2013-02-27 12:03:00,32.8,25.4,29.07,ESE,120,6.0,19.0,74,0.00,,,0.00,Wunderground v.1.15,2013-02-27 21:03:00,
2013-02-27 12:09:00,32.9,25.5,29.07,ESE,103,5.0,19.0,74,0.00,,,0.00,Wunderground v.1.15,2013-02-27 21:09:00,
2013-02-27 12:15:00,32.9,25.5,29.08,ESE,111,4.0,19.0,74,0.00,,,0.00,Wunderground v.1.15,2013-02-27 21:15:00,
2013-02-27 12:20:00,32.9,25.5,29.08,ESE,116,4.0,19.0,74,0.00,,,0.00,Wunderground v.1.15,2013-02-27 21:20:00,
2013-02-27 12:26:00,33.1,25.7,29.08,SSW,205,2.0,19.0,74,0.00,,,0.00,Wunderground v.1.15,2013-02-27 21:26:00,
2013-02-27 12:32:00,33.5,26.1,29.08,South,172,2.0,19.0,74,0.00,,,0.00,Wunderground v.1.15,2013-02-27 21:32:00,
2013-02-27 12:38:00,33.3,26.2,29.08,SE,127,3.0,19.0,75,0.00,,,0.00,Wunderground v.1.15,2013-02-27 21:38:00,
2013-02-27 12:44:00,33.0,26.6,29.08,SSW,194,3.0,19.0,77,0.00,,,0.00,Wunderground v.1.15,2013-02-27 21:44:00,
2013-02-27 12:50:00,32.8,26.7,29.08,SSE,167,2.0,19.0,78,0.00,,,0.00,Wunderground v.1.15,2013-02-27 21:50:00,
2013-02-27 12:56:00,33.1,27.0,29.08,SSE,158,1.0,19.0,78,0.00,,,0.00,Wunderground v.1.15,2013-02-27 21:56:00,
2013-02-27 13:01:00,33.3,26.9,29.08,SSW,200,2.0,19.0,77,0.00,,,0.00,Wunderground v.1.15,2013-02-27 22:01:00,
2013-02-27 13:07:00,33.6,27.2,29.09,ESE,111,1.0,19.0,77,0.00,,,0.00,Wunderground v.1.15,2013-02-27 22:07:00,
2013-02-27 13:13:00,33.9,27.1,29.09,SE,141,1.0,19.0,76,0.00,,,0.00,Wunderground v.1.15,2013-02-27 22:13:00,
2013-02-27 13:19:00,34.2,27.1,29.09,SSE,148,1.0,19.0,75,0.00,,,0.00,Wunderground v.1.15,2013-02-27 22:19:00,
2013-02-27 13:24:00,34.2,26.8,29.09,SSE,156,1.0,19.0,74,0.00,,,0.00,Wunderground v.1.15,2013-02-27 22:24:00,
2013-02-27 13:30:00,34.3,26.9,29.09,ESE,115,2.0,19.0,74,0.00,,,0.00,Wunderground v.1.15,2013-02-27 22:30:00,
2013-02-27 13:36:00,34.3,26.5,29.09,SSE,157,3.0,19.0,73,0.00,,,0.00,Wunderground v.1.15,2013-02-27 22:36:00,
2013-02-27 13:42:00,34.7,26.6,29.09,East,88,3.0,19.0,72,0.00,,,0.00,Wunderground v.1.15,2013-02-27 22:42:00,
2013-02-27 13:48:00,35.5,27.4,29.09,SE,142,2.0,19.0,72,0.00,,,0.00,Wunderground v.1.15,2013-02-27 22:48:00,
2013-02-27 13:54:00,36.0,27.5,29.09,SSE,160,3.0,19.0,71,0.00,,,0.00,Wunderground v.1.15,2013-02-27 22:54:00,
2013-02-27 14:00:00,36.3,27.8,29.09,ESE,102,3.0,19.0,71,0.00,,,0.00,Wunderground v.1.15,2013-02-27 23:00:00,
2013-02-27 14:05:00,36.6,27.7,29.09,South,183,3.0,19.0,70,0.00,,,0.00,Wunderground v.1.15,2013-02-27 23:05:00,
2013-02-27 14:11:00,36.9,28.4,29.09,SSE,153,4.0,4.0,71,0.00,,,0.00,Wunderground v.1.15,2013-02-27 23:11:00,
2013-02-27 14:17:00,36.0,27.5,29.09,ESE,123,3.0,19.0,71,0.00,,,0.00,Wunderground v.1.15,2013-02-27 23:17:00,
2013-02-27 14:23:00,35.5,27.4,29.09,South,169,3.0,19.0,72,0.00,,,0.00,Wunderground v.1.15,2013-02-27 23:23:00,
2013-02-27 14:28:00,35.8,27.7,29.09,SW,215,3.0,19.0,72,0.00,,,0.00,Wunderground v.1.15,2013-02-27 23:28:00,
2013-02-27 14:34:00,36.1,27.9,29.09,SE,141,3.0,19.0,72,0.00,,,0.00,Wunderground v.1.15,2013-02-27 23:34:00,
2013-02-27 14:40:00,36.2,27.4,29.09,South,172,4.0,19.0,70,0.00,,,0.00,Wunderground v.1.15,2013-02-27 23:40:00,
2013-02-27 14:46:00,36.2,27.4,29.09,SSE,160,3.0,19.0,70,0.00,,,0.00,Wunderground v.1.15,2013-02-27 23:46:00,
2013-02-27 14:52:00,35.6,27.1,29.09,SSW,207,4.0,19.0,71,0.00,,,0.00,Wunderground v.1.15,2013-02-27 23:52:00,
2013-02-27 14:58:00,35.5,27.4,29.09,SSE,156,4.0,19.0,72,0.00,,,0.00,Wunderground v.1.15,2013-02-27 23:58:00,
2013-02-27 15:04:00,35.7,27.9,29.09,South,177,4.0,19.0,73,0.00,,,0.00,Wunderground v.1.15,2013-02-28 00:04:00,
2013-02-27 15:10:00,35.3,27.2,29.09,SW,228,4.0,19.0,72,0.00,,,0.00,Wunderground v.1.15,2013-02-28 00:10:00,
2013-02-27 15:15:00,34.9,27.1,29.09,WSW,242,3.0,19.0,73,0.00,,,0.00,Wunderground v.1.15,2013-02-28 00:15:00,
2013-02-27 15:21:00,34.3,27.5,29.10,South,180,3.0,19.0,76,0.00,,,0.00,Wunderground v.1.15,2013-02-28 00:21:00,
2013-02-27 15:27:00,33.8,27.7,29.09,South,183,3.0,19.0,78,0.00,,,0.00,Wunderground v.1.15,2013-02-28 00:27:00,
2013-02-27 15:32:00,33.7,27.9,29.10,SSE,152,3.0,19.0,79,0.00,,,0.00,Wunderground v.1.15,2013-02-28 00:32:00,
2013-02-27 15:38:00,34.3,28.2,29.10,SSW,201,2.0,19.0,78,0.00,,,0.00,Wunderground v.1.15,2013-02-28 00:38:00,
2013-02-27 15:44:00,34.9,28.4,29.10,SSW,200,2.0,19.0,77,0.00,,,0.00,Wunderground v.1.15,2013-02-28 00:44:00,
2013-02-27 15:50:00,35.3,28.5,29.10,South,183,3.0,19.0,76,0.00,,,0.00,Wunderground v.1.15,2013-02-28 00:50:00,
2013-02-27 15:56:00,34.7,28.2,29.10,SW,232,3.0,19.0,77,0.00,,,0.00,Wunderground v.1.15,2013-02-28 00:56:00,
2013-02-27 16:02:00,34.2,28.1,29.10,South,183,3.0,19.0,78,0.00,,,0.00,Wunderground v.1.15,2013-02-28 01:02:00,
2013-02-27 16:08:00,33.9,28.4,29.10,South,180,2.0,19.0,80,0.00,,,0.00,Wunderground v.1.15,2013-02-28 01:08:00,
2013-02-27 16:13:00,33.7,28.2,29.10,SSE,163,2.0,19.0,80,0.00,,,0.00,Wunderground v.1.15,2013-02-28 01:13:00,
2013-02-27 16:19:00,33.9,28.1,29.10,SSW,205,1.0,19.0,79,0.00,,,0.00,Wunderground v.1.15,2013-02-28 01:19:00,
2013-02-27 16:25:00,33.7,27.9,29.10,SSW,204,2.0,19.0,79,0.00,,,0.00,Wunderground v.1.15,2013-02-28 01:25:00,
2013-02-27 16:31:00,34.0,28.2,29.10,South,191,1.0,19.0,79,0.00,,,0.00,Wunderground v.1.15,2013-02-28 01:31:00,
2013-02-27 16:36:00,34.1,28.0,29.10,SW,219,2.0,19.0,78,0.00,,,0.00,Wunderground v.1.15,2013-02-28 01:36:00,
2013-02-27 16:42:00,34.0,28.2,29.11,SSW,208,4.0,19.0,79,0.00,,,0.00,Wunderground v.1.15,2013-02-28 01:42:00,
2013-02-27 16:48:00,34.1,28.3,29.10,South,191,4.0,19.0,79,0.00,,,0.00,Wunderground v.1.15,2013-02-28 01:48:00,
2013-02-27 16:54:00,33.9,28.1,29.10,SSE,167,3.0,19.0,79,0.00,,,0.00,Wunderground v.1.15,2013-02-28 01:54:00,
2013-02-27 17:00:00,33.7,27.9,29.10,South,177,3.0,19.0,79,0.00,,,0.00,Wunderground v.1.15,2013-02-28 02:00:00,
2013-02-27 17:06:00,33.6,28.1,29.11,South,179,3.0,19.0,80,0.00,,,0.00,Wunderground v.1.15,2013-02-28 02:06:00,
2013-02-27 17:12:00,33.3,27.8,29.11,WSW,243,3.0,19.0,80,0.00,,,0.00,Wunderground v.1.15,2013-02-28 02:12:00,
2013-02-27 17:17:00,33.1,27.6,29.11,SSW,204,3.0,19.0,80,0.00,,,0.00,Wunderground v.1.15,2013-02-28 02:17:00,
2013-02-27 17:23:00,33.0,27.5,29.11,WNW,292,4.0,19.0,80,0.00,,,0.00,Wunderground v.1.15,2013-02-28 02:23:00,
2013-02-27 17:29:00,32.7,27.5,29.11,East,86,4.0,19.0,81,0.00,,,0.00,Wunderground v.1.15,2013-02-28 02:29:00,
2013-02-27 17:34:00,32.3,27.4,29.11,ESE,105,5.0,19.0,82,0.00,,,0.00,Wunderground v.1.15,2013-02-28 02:34:00,
2013-02-27 17:40:00,32.0,27.7,29.11,East,84,4.0,19.0,84,0.00,,,0.00,Wunderground v.1.15,2013-02-28 02:40:00,
2013-02-27 17:45:00,31.8,27.5,29.11,SE,135,4.0,19.0,84,0.00,,,0.00,Wunderground v.1.15,2013-02-28 02:45:00,
2013-02-27 17:51:00,31.7,27.7,29.11,East,95,3.0,3.0,85,0.00,,,0.00,Wunderground v.1.15,2013-02-28 02:51:00,
2013-02-27 17:57:00,31.4,27.7,29.11,ESE,108,3.0,19.0,86,0.00,,,0.00,Wunderground v.1.15,2013-02-28 02:57:00,
2013-02-27 18:03:00,31.3,27.6,29.11,East,95,3.0,7.0,86,0.00,,,0.00,Wunderground v.1.15,2013-02-28 03:03:00,
2013-02-27 18:08:00,31.2,27.5,29.11,East,93,3.0,19.0,86,0.00,,,0.00,Wunderground v.1.15,2013-02-28 03:08:00,
2013-02-27 18:14:00,31.4,27.4,29.11,SE,134,3.0,19.0,85,0.00,,,0.00,Wunderground v.1.15,2013-02-28 03:14:00,
2013-02-27 18:20:00,31.4,27.4,29.12,SE,130,3.0,19.0,85,0.00,,,0.00,Wunderground v.1.15,2013-02-28 03:20:00,
2013-02-27 18:26:00,31.3,27.6,29.12,East,91,2.0,19.0,86,0.00,,,0.00,Wunderground v.1.15,2013-02-28 03:26:00,
2013-02-27 18:31:00,31.2,27.5,29.11,ESE,117,1.0,19.0,86,0.00,,,0.00,Wunderground v.1.15,2013-02-28 03:31:00,
2013-02-27 18:37:00,31.1,27.4,29.11,SE,129,2.0,19.0,86,0.00,,,0.00,Wunderground v.1.15,2013-02-28 03:37:00,
2013-02-27 18:43:00,31.3,27.6,29.12,ENE,69,3.0,19.0,86,0.00,,,0.00,Wunderground v.1.15,2013-02-28 03:43:00,
2013-02-27 18:49:00,31.3,27.6,29.12,East,80,3.0,19.0,86,0.00,,,0.00,Wunderground v.1.15,2013-02-28 03:49:00,
2013-02-27 18:55:00,31.3,27.9,29.12,East,86,2.0,19.0,87,0.00,,,0.00,Wunderground v.1.15,2013-02-28 03:55:00,
2013-02-27 19:01:00,31.2,27.8,29.12,SE,128,2.0,2.0,87,0.00,,,0.00,Wunderground v.1.15,2013-02-28 04:01:00,
2013-02-27 19:07:00,31.0,27.9,29.13,East,98,1.0,19.0,88,0.00,,,0.00,Wunderground v.1.15,2013-02-28 04:07:00,
2013-02-27 19:12:00,30.8,27.9,29.13,ESE,113,1.0,19.0,89,0.00,,,0.00,Wunderground v.1.15,2013-02-28 04:12:00,
2013-02-27 19:18:00,30.7,28.1,29.13,ESE,122,1.0,19.0,90,0.00,,,0.00,Wunderground v.1.15,2013-02-28 04:18:00,
2013-02-27 19:24:00,30.5,27.9,29.13,East,84,1.0,19.0,90,0.00,,,0.00,Wunderground v.1.15,2013-02-28 04:24:00,
2013-02-27 19:30:00,30.4,28.1,29.13,East,83,1.0,19.0,91,0.00,,,0.00,Wunderground v.1.15,2013-02-28 04:30:00,
2013-02-27 19:36:00,30.2,27.9,29.13,East,90,1.0,19.0,91,0.00,,,0.00,Wunderground v.1.15,2013-02-28 04:36:00,
2013-02-27 19:42:00,30.1,28.1,29.13,ENE,63,1.0,19.0,92,0.00,,,0.00,Wunderground v.1.15,2013-02-28 04:42:00,
2013-02-27 19:48:00,30.1,28.1,29.13,ENE,69,2.0,19.0,92,0.00,,,0.00,Wunderground v.1.15,2013-02-28 04:48:00,
2013-02-27 19:54:00,30.2,28.2,29.13,ESE,115,2.0,19.0,92,0.00,,,0.00,Wunderground v.1.15,2013-02-28 04:54:00,
2013-02-27 19:59:00,30.2,28.2,29.13,East,84,1.0,19.0,92,0.00,,,0.00,Wunderground v.1.15,2013-02-28 04:59:00,
2013-02-27 20:00:00,30.2,28.4,29.13,ENE,67,1.0,19.0,93,0.00,,,0.00,Wunderground v.1.15,2013-02-28 05:00:00,
2013-02-27 20:01:00,30.2,28.4,29.13,NE,49,1.0,19.0,93,0.00,,,0.00,Wunderground v.1.15,2013-02-28 05:01:00,
2013-02-27 20:02:00,30.2,28.4,29.13,East,91,1.0,19.0,93,0.00,,,0.00,Wunderground v.1.15,2013-02-28 05:02:00,
2013-02-27 20:05:00,30.1,28.3,29.13,East,101,1.0,19.0,93,0.00,,,0.00,Wunderground v.1.15,2013-02-28 05:05:00,
2013-02-27 20:11:00,30.1,28.3,29.13,ESE,105,1.0,1.0,93,0.00,,,0.00,Wunderground v.1.15,2013-02-28 05:11:00,
2013-02-27 20:17:00,30.0,28.2,29.13,ESE,105,1.0,19.0,93,0.00,,,0.00,Wunderground v.1.15,2013-02-28 05:17:00,
2013-02-27 20:22:00,30.0,28.2,29.13,East,94,2.0,19.0,93,0.00,,,0.00,Wunderground v.1.15,2013-02-28 05:22:00,
2013-02-27 20:28:00,30.1,28.3,29.13,East,84,1.0,19.0,93,0.00,,,0.00,Wunderground v.1.15,2013-02-28 05:28:00,
2013-02-27 20:34:00,30.1,28.3,29.13,East,84,1.0,19.0,93,0.00,,,0.00,Wunderground v.1.15,2013-02-28 05:34:00,
2013-02-27 20:40:00,30.1,28.3,29.13,NE,52,2.0,19.0,93,0.00,,,0.00,Wunderground v.1.15,2013-02-28 05:40:00,
2013-02-27 20:45:00,30.1,28.3,29.14,East,85,2.0,19.0,93,0.00,,,0.00,Wunderground v.1.15,2013-02-28 05:45:00,
2013-02-27 20:51:00,30.2,28.4,29.13,ESE,113,2.0,19.0,93,0.00,,,0.00,Wunderground v.1.15,2013-02-28 05:51:00,
2013-02-27 20:57:00,30.2,28.4,29.14,East,93,2.0,19.0,93,0.00,,,0.00,Wunderground v.1.15,2013-02-28 05:57:00,
2013-02-27 21:03:00,30.3,28.5,29.14,ESE,114,2.0,19.0,93,0.00,,,0.00,Wunderground v.1.15,2013-02-28 06:03:00,
2013-02-27 21:08:00,30.3,28.5,29.14,ENE,69,2.0,19.0,93,0.00,,,0.00,Wunderground v.1.15,2013-02-28 06:08:00,
2013-02-27 21:14:00,30.2,28.4,29.14,East,96,2.0,19.0,93,0.00,,,0.00,Wunderground v.1.15,2013-02-28 06:14:00,
2013-02-27 21:20:00,30.2,28.4,29.14,East,84,2.0,19.0,93,0.00,,,0.00,Wunderground v.1.15,2013-02-28 06:20:00,
2013-02-27 21:26:00,30.1,28.3,29.14,East,98,2.0,19.0,93,0.00,,,0.00,Wunderground v.1.15,2013-02-28 06:26:00,
2013-02-27 21:31:00,30.0,28.2,29.14,East,89,2.0,19.0,93,0.00,,,0.00,Wunderground v.1.15,2013-02-28 06:31:00,
2013-02-27 21:37:00,29.9,28.1,29.14,ENE,60,3.0,19.0,93,0.00,,,0.00,Wunderground v.1.15,2013-02-28 06:37:00,
2013-02-27 21:43:00,29.8,28.0,29.14,ENE,68,3.0,19.0,93,0.00,,,0.00,Wunderground v.1.15,2013-02-28 06:43:00,
2013-02-27 21:49:00,29.8,28.0,29.14,NE,49,4.0,19.0,93,0.00,,,0.00,Wunderground v.1.15,2013-02-28 06:49:00,
2013-02-27 21:55:00,29.8,28.0,29.14,ENE,61,5.0,19.0,93,0.00,,,0.00,Wunderground v.1.15,2013-02-28 06:55:00,
2013-02-27 22:01:00,29.8,28.0,29.14,ENE,71,4.0,4.0,93,0.00,,,0.00,Wunderground v.1.15,2013-02-28 07:01:00,
2013-02-27 22:07:00,29.6,27.8,29.15,ENE,58,3.0,19.0,93,0.00,,,0.00,Wunderground v.1.15,2013-02-28 07:07:00,
2013-02-27 22:13:00,29.5,27.7,29.15,East,94,2.0,19.0,93,0.00,,,0.00,Wunderground v.1.15,2013-02-28 07:13:00,
2013-02-27 22:18:00,29.5,27.7,29.14,NE,49,2.0,19.0,93,0.00,,,0.00,Wunderground v.1.15,2013-02-28 07:18:00,
2013-02-27 22:24:00,29.5,27.7,29.15,ENE,63,3.0,19.0,93,0.00,,,0.00,Wunderground v.1.15,2013-02-28 07:24:00,
2013-02-27 22:30:00,29.4,27.4,29.15,East,93,2.0,19.0,92,0.00,,,0.00,Wunderground v.1.15,2013-02-28 07:30:00,
2013-02-27 22:36:00,29.5,27.7,29.15,ESE,110,2.0,19.0,93,0.00,,,0.00,Wunderground v.1.15,2013-02-28 07:36:00,
2013-02-27 22:42:00,29.5,27.7,29.15,ENE,77,2.0,19.0,93,0.00,,,0.00,Wunderground v.1.15,2013-02-28 07:42:00,
2013-02-27 22:48:00,29.6,27.8,29.14,East,87,2.0,19.0,93,0.00,,,0.00,Wunderground v.1.15,2013-02-28 07:48:00,
2013-02-27 22:54:00,29.6,27.6,29.14,East,88,2.0,19.0,92,0.00,,,0.00,Wunderground v.1.15,2013-02-28 07:54:00,
2013-02-27 22:59:00,29.6,27.6,29.15,ENE,67,3.0,19.0,92,0.00,,,0.00,Wunderground v.1.15,2013-02-28 07:59:00,
2013-02-27 23:05:00,29.7,27.7,29.14,ENE,61,2.0,19.0,92,0.00,,,0.00,Wunderground v.1.15,2013-02-28 08:05:00,
2013-02-27 23:11:00,29.8,27.8,29.15,ENE,62,3.0,3.0,92,0.00,,,0.00,Wunderground v.1.15,2013-02-28 08:11:00,
2013-02-27 23:17:00,29.8,27.8,29.15,ESE,102,2.0,19.0,92,0.00,,,0.00,Wunderground v.1.15,2013-02-28 08:17:00,
2013-02-27 23:22:00,29.8,27.8,29.15,East,89,1.0,19.0,92,0.00,,,0.00,Wunderground v.1.15,2013-02-28 08:22:00,
2013-02-27 23:28:00,29.7,27.7,29.15,East,91,0.0,19.0,92,0.00,,,0.00,Wunderground v.1.15,2013-02-28 08:28:00,
2013-02-27 23:34:00,29.8,28.0,29.15,East,90,0.0,19.0,93,0.00,,,0.00,Wunderground v.1.15,2013-02-28 08:34:00,
2013-02-27 23:40:00,29.7,27.9,29.15,East,91,0.0,19.0,93,0.00,,,0.00,Wunderground v.1.15,2013-02-28 08:40:00,
2013-02-27 23:45:00,29.7,27.9,29.15,NE,49,0.0,19.0,93,0.00,,,0.00,Wunderground v.1.15,2013-02-28 08:45:00,
2013-02-27 23:51:00,29.8,28.0,29.15,ENE,61,1.0,19.0,93,0.00,,,0.00,Wunderground v.1.15,2013-02-28 08:51:00,
2013-02-27 23:57:00,29.8,28.0,29.16,ENE,67,1.0,19.0,93,0.00,,,0.00,Wunderground v.1.15,2013-02-28 08:57:00,